sensor_id;sensor_type;location;lat;lon;timestamp;P1;durP1;ratioP1;P2;durP2;ratioP2
81396;SDS011;70852;49.908;8.126;2023-07-24T00:00:40;5.05;;;1.85;;
81396;SDS011;70852;49.908;8.126;2023-07-24T00:03:06;4.85;;;2.03;;
81396;SDS011;70852;49.908;8.126;2023-07-24T00:05:34;4.05;;;1.90;;
81396;SDS011;70852;49.908;8.126;2023-07-24T00:08:02;5.97;;;1.83;;
81396;SDS011;70852;49.908;8.126;2023-07-24T00:10:27;5.35;;;2.15;;
81396;SDS011;70852;49.908;8.126;2023-07-24T00:12:55;4.68;;;1.80;;
81396;SDS011;70852;49.908;8.126;2023-07-24T00:15:23;6.43;;;2.20;;
81396;SDS011;70852;49.908;8.126;2023-07-24T00:17:50;4.90;;;2.35;;
81396;SDS011;70852;49.908;8.126;2023-07-24T00:20:16;3.80;;;1.90;;
81396;SDS011;70852;49.908;8.126;2023-07-24T00:22:41;7.07;;;2.00;;
81396;SDS011;70852;49.908;8.126;2023-07-24T00:25:09;7.40;;;2.00;;
81396;SDS011;70852;49.908;8.126;2023-07-24T00:27:37;8.27;;;1.95;;
81396;SDS011;70852;49.908;8.126;2023-07-24T00:30:02;6.05;;;1.90;;
81396;SDS011;70852;49.908;8.126;2023-07-24T00:32:27;4.72;;;1.83;;
81396;SDS011;70852;49.908;8.126;2023-07-24T00:34:53;4.28;;;2.00;;
81396;SDS011;70852;49.908;8.126;2023-07-24T00:37:18;4.85;;;1.95;;
81396;SDS011;70852;49.908;8.126;2023-07-24T00:39:43;4.75;;;1.80;;
81396;SDS011;70852;49.908;8.126;2023-07-24T00:42:14;6.53;;;2.30;;
81396;SDS011;70852;49.908;8.126;2023-07-24T00:44:39;4.50;;;2.28;;
81396;SDS011;70852;49.908;8.126;2023-07-24T00:47:07;4.65;;;2.00;;
81396;SDS011;70852;49.908;8.126;2023-07-24T00:49:33;4.47;;;1.75;;
81396;SDS011;70852;49.908;8.126;2023-07-24T00:51:59;3.78;;;1.70;;
81396;SDS011;70852;49.908;8.126;2023-07-24T00:54:27;4.10;;;1.80;;
81396;SDS011;70852;49.908;8.126;2023-07-24T00:56:55;5.93;;;2.28;;
81396;SDS011;70852;49.908;8.126;2023-07-24T00:59:23;5.32;;;1.92;;
81396;SDS011;70852;49.908;8.126;2023-07-24T01:01:53;3.92;;;1.80;;
81396;SDS011;70852;49.908;8.126;2023-07-24T01:04:21;4.22;;;1.85;;
81396;SDS011;70852;49.908;8.126;2023-07-24T01:06:50;4.80;;;1.98;;
81396;SDS011;70852;49.908;8.126;2023-07-24T01:09:15;4.43;;;2.00;;
81396;SDS011;70852;49.908;8.126;2023-07-24T01:11:43;4.47;;;2.00;;
81396;SDS011;70852;49.908;8.126;2023-07-24T01:14:13;5.28;;;1.73;;
81396;SDS011;70852;49.908;8.126;2023-07-24T01:16:49;3.90;;;1.70;;
81396;SDS011;70852;49.908;8.126;2023-07-24T01:27:46;6.28;;;1.92;;
81396;SDS011;70852;49.908;8.126;2023-07-24T01:30:12;6.28;;;2.13;;
81396;SDS011;70852;49.908;8.126;2023-07-24T01:32:39;6.13;;;2.22;;
81396;SDS011;70852;49.908;8.126;2023-07-24T01:35:05;4.90;;;2.20;;
81396;SDS011;70852;49.908;8.126;2023-07-24T01:37:31;6.45;;;2.05;;
81396;SDS011;70852;49.908;8.126;2023-07-24T01:40:01;4.85;;;2.00;;
81396;SDS011;70852;49.908;8.126;2023-07-24T01:42:27;4.50;;;2.03;;
81396;SDS011;70852;49.908;8.126;2023-07-24T01:44:55;7.20;;;2.35;;
81396;SDS011;70852;49.908;8.126;2023-07-24T01:47:23;4.28;;;2.30;;
81396;SDS011;70852;49.908;8.126;2023-07-24T01:49:48;6.00;;;2.45;;
81396;SDS011;70852;49.908;8.126;2023-07-24T01:52:16;5.32;;;1.90;;
81396;SDS011;70852;49.908;8.126;2023-07-24T01:54:44;4.53;;;2.13;;
81396;SDS011;70852;49.908;8.126;2023-07-24T01:57:09;4.78;;;2.00;;
81396;SDS011;70852;49.908;8.126;2023-07-24T01:59:39;5.10;;;2.20;;
81396;SDS011;70852;49.908;8.126;2023-07-24T02:02:04;5.07;;;1.98;;
81396;SDS011;70852;49.908;8.126;2023-07-24T02:04:32;5.53;;;2.15;;
81396;SDS011;70852;49.908;8.126;2023-07-24T02:07:00;4.25;;;1.55;;
81396;SDS011;70852;49.908;8.126;2023-07-24T02:09:25;5.65;;;1.92;;
81396;SDS011;70852;49.908;8.126;2023-07-24T02:11:53;3.78;;;2.10;;
81396;SDS011;70852;49.908;8.126;2023-07-24T02:14:19;3.45;;;1.58;;
81396;SDS011;70852;49.908;8.126;2023-07-24T02:16:45;6.30;;;2.08;;
81396;SDS011;70852;49.908;8.126;2023-07-24T02:19:13;3.53;;;1.75;;
81396;SDS011;70852;49.908;8.126;2023-07-24T02:21:38;4.65;;;2.10;;
81396;SDS011;70852;49.908;8.126;2023-07-24T02:24:05;6.07;;;2.10;;
81396;SDS011;70852;49.908;8.126;2023-07-24T02:26:31;4.82;;;2.53;;
81396;SDS011;70852;49.908;8.126;2023-07-24T02:28:56;5.07;;;1.95;;
81396;SDS011;70852;49.908;8.126;2023-07-24T02:31:23;3.90;;;2.00;;
81396;SDS011;70852;49.908;8.126;2023-07-24T02:33:49;5.57;;;2.00;;
81396;SDS011;70852;49.908;8.126;2023-07-24T02:38:44;5.45;;;2.13;;
81396;SDS011;70852;49.908;8.126;2023-07-24T02:41:12;5.15;;;2.70;;
81396;SDS011;70852;49.908;8.126;2023-07-24T02:43:37;4.32;;;2.00;;
81396;SDS011;70852;49.908;8.126;2023-07-24T02:46:07;5.00;;;2.33;;
81396;SDS011;70852;49.908;8.126;2023-07-24T02:48:32;4.07;;;2.08;;
81396;SDS011;70852;49.908;8.126;2023-07-24T02:51:00;3.92;;;2.10;;
81396;SDS011;70852;49.908;8.126;2023-07-24T02:53:25;4.40;;;1.92;;
81396;SDS011;70852;49.908;8.126;2023-07-24T02:55:50;5.00;;;1.85;;
81396;SDS011;70852;49.908;8.126;2023-07-24T02:58:16;5.50;;;2.28;;
81396;SDS011;70852;49.908;8.126;2023-07-24T03:00:41;3.85;;;1.70;;
81396;SDS011;70852;49.908;8.126;2023-07-24T03:03:06;3.45;;;1.92;;
81396;SDS011;70852;49.908;8.126;2023-07-24T03:05:35;6.03;;;2.00;;
81396;SDS011;70852;49.908;8.126;2023-07-24T03:08:03;5.30;;;2.00;;
81396;SDS011;70852;49.908;8.126;2023-07-24T03:10:31;4.82;;;2.00;;
81396;SDS011;70852;49.908;8.126;2023-07-24T03:12:58;4.22;;;2.00;;
81396;SDS011;70852;49.908;8.126;2023-07-24T03:15:23;4.63;;;1.90;;
81396;SDS011;70852;49.908;8.126;2023-07-24T03:17:48;7.32;;;2.00;;
81396;SDS011;70852;49.908;8.126;2023-07-24T03:20:17;4.03;;;1.92;;
81396;SDS011;70852;49.908;8.126;2023-07-24T03:22:45;5.13;;;1.83;;
81396;SDS011;70852;49.908;8.126;2023-07-24T03:25:11;5.10;;;1.75;;
81396;SDS011;70852;49.908;8.126;2023-07-24T03:27:39;5.72;;;1.90;;
81396;SDS011;70852;49.908;8.126;2023-07-24T03:30:07;4.00;;;1.90;;
81396;SDS011;70852;49.908;8.126;2023-07-24T03:32:36;4.40;;;1.70;;
81396;SDS011;70852;49.908;8.126;2023-07-24T03:35:06;4.68;;;1.73;;
81396;SDS011;70852;49.908;8.126;2023-07-24T03:37:31;4.38;;;1.83;;
81396;SDS011;70852;49.908;8.126;2023-07-24T03:42:29;6.38;;;2.13;;
81396;SDS011;70852;49.908;8.126;2023-07-24T03:44:59;5.22;;;2.17;;
81396;SDS011;70852;49.908;8.126;2023-07-24T03:47:27;4.55;;;2.03;;
81396;SDS011;70852;49.908;8.126;2023-07-24T03:49:55;5.53;;;1.92;;
81396;SDS011;70852;49.908;8.126;2023-07-24T03:52:20;3.97;;;2.28;;
81396;SDS011;70852;49.908;8.126;2023-07-24T03:54:46;4.22;;;1.80;;
81396;SDS011;70852;49.908;8.126;2023-07-24T03:57:11;4.03;;;1.83;;
81396;SDS011;70852;49.908;8.126;2023-07-24T03:59:36;5.78;;;2.03;;
81396;SDS011;70852;49.908;8.126;2023-07-24T04:02:01;6.05;;;1.95;;
81396;SDS011;70852;49.908;8.126;2023-07-24T04:04:27;5.30;;;1.92;;
81396;SDS011;70852;49.908;8.126;2023-07-24T04:06:52;4.13;;;1.70;;
81396;SDS011;70852;49.908;8.126;2023-07-24T04:09:20;3.65;;;1.63;;
81396;SDS011;70852;49.908;8.126;2023-07-24T04:11:45;3.97;;;1.92;;
81396;SDS011;70852;49.908;8.126;2023-07-24T04:14:13;3.20;;;1.98;;
81396;SDS011;70852;49.908;8.126;2023-07-24T04:16:38;4.00;;;1.88;;
81396;SDS011;70852;49.908;8.126;2023-07-24T04:19:04;4.13;;;1.73;;
81396;SDS011;70852;49.908;8.126;2023-07-24T04:21:31;4.00;;;1.80;;
81396;SDS011;70852;49.908;8.126;2023-07-24T04:23:57;4.63;;;1.95;;
81396;SDS011;70852;49.908;8.126;2023-07-24T04:26:22;6.07;;;2.58;;
81396;SDS011;70852;49.908;8.126;2023-07-24T04:28:50;4.82;;;1.83;;
81396;SDS011;70852;49.908;8.126;2023-07-24T04:31:15;5.03;;;1.98;;
81396;SDS011;70852;49.908;8.126;2023-07-24T04:33:42;7.90;;;2.08;;
81396;SDS011;70852;49.908;8.126;2023-07-24T04:36:13;5.13;;;1.92;;
81396;SDS011;70852;49.908;8.126;2023-07-24T04:38:38;5.13;;;1.92;;
81396;SDS011;70852;49.908;8.126;2023-07-24T04:41:08;7.25;;;2.20;;
81396;SDS011;70852;49.908;8.126;2023-07-24T04:43:33;4.28;;;2.15;;
81396;SDS011;70852;49.908;8.126;2023-07-24T04:46:01;4.90;;;1.92;;
81396;SDS011;70852;49.908;8.126;2023-07-24T04:48:28;4.90;;;1.98;;
81396;SDS011;70852;49.908;8.126;2023-07-24T04:50:54;3.75;;;1.95;;
81396;SDS011;70852;49.908;8.126;2023-07-24T04:53:20;4.88;;;1.90;;
81396;SDS011;70852;49.908;8.126;2023-07-24T04:55:45;4.30;;;2.20;;
81396;SDS011;70852;49.908;8.126;2023-07-24T04:58:15;4.30;;;1.90;;
81396;SDS011;70852;49.908;8.126;2023-07-24T05:00:41;5.82;;;2.53;;
81396;SDS011;70852;49.908;8.126;2023-07-24T05:03:06;4.53;;;2.20;;
81396;SDS011;70852;49.908;8.126;2023-07-24T05:05:36;4.80;;;2.10;;
81396;SDS011;70852;49.908;8.126;2023-07-24T05:08:04;5.75;;;2.20;;
81396;SDS011;70852;49.908;8.126;2023-07-24T05:10:34;3.92;;;2.20;;
81396;SDS011;70852;49.908;8.126;2023-07-24T05:13:00;8.85;;;2.25;;
81396;SDS011;70852;49.908;8.126;2023-07-24T05:15:26;4.43;;;2.20;;
81396;SDS011;70852;49.908;8.126;2023-07-24T05:17:53;5.13;;;2.53;;
81396;SDS011;70852;49.908;8.126;2023-07-24T05:20:21;4.60;;;2.22;;
81396;SDS011;70852;49.908;8.126;2023-07-24T05:22:46;6.15;;;2.30;;
81396;SDS011;70852;49.908;8.126;2023-07-24T05:25:12;5.82;;;2.00;;
81396;SDS011;70852;49.908;8.126;2023-07-24T05:27:40;5.47;;;2.22;;
81396;SDS011;70852;49.908;8.126;2023-07-24T05:30:05;4.18;;;1.83;;
81396;SDS011;70852;49.908;8.126;2023-07-24T05:32:31;4.63;;;2.15;;
81396;SDS011;70852;49.908;8.126;2023-07-24T05:34:56;5.82;;;2.10;;
81396;SDS011;70852;49.908;8.126;2023-07-24T05:37:21;3.78;;;2.10;;
81396;SDS011;70852;49.908;8.126;2023-07-24T05:39:49;4.88;;;2.42;;
81396;SDS011;70852;49.908;8.126;2023-07-24T05:42:14;4.68;;;2.20;;
81396;SDS011;70852;49.908;8.126;2023-07-24T05:44:44;6.00;;;2.00;;
81396;SDS011;70852;49.908;8.126;2023-07-24T05:47:09;4.18;;;1.85;;
81396;SDS011;70852;49.908;8.126;2023-07-24T05:49:37;4.45;;;2.00;;
81396;SDS011;70852;49.908;8.126;2023-07-24T05:52:04;4.60;;;2.38;;
81396;SDS011;70852;49.908;8.126;2023-07-24T05:54:34;4.85;;;1.90;;
81396;SDS011;70852;49.908;8.126;2023-07-24T05:57:04;4.97;;;1.90;;
81396;SDS011;70852;49.908;8.126;2023-07-24T05:59:37;4.93;;;1.98;;
81396;SDS011;70852;49.908;8.126;2023-07-24T06:02:02;4.65;;;2.30;;
81396;SDS011;70852;49.908;8.126;2023-07-24T06:04:30;4.55;;;2.50;;
81396;SDS011;70852;49.908;8.126;2023-07-24T06:06:58;4.97;;;2.17;;
81396;SDS011;70852;49.908;8.126;2023-07-24T06:09:23;3.92;;;1.98;;
81396;SDS011;70852;49.908;8.126;2023-07-24T06:11:53;5.97;;;2.25;;
81396;SDS011;70852;49.908;8.126;2023-07-24T06:14:18;4.50;;;2.17;;
81396;SDS011;70852;49.908;8.126;2023-07-24T06:16:46;4.72;;;2.13;;
81396;SDS011;70852;49.908;8.126;2023-07-24T06:19:16;6.32;;;2.10;;
81396;SDS011;70852;49.908;8.126;2023-07-24T06:21:42;5.35;;;2.30;;
81396;SDS011;70852;49.908;8.126;2023-07-24T06:24:10;4.93;;;2.10;;
81396;SDS011;70852;49.908;8.126;2023-07-24T06:26:37;5.30;;;1.90;;
81396;SDS011;70852;49.908;8.126;2023-07-24T06:29:04;4.05;;;2.05;;
81396;SDS011;70852;49.908;8.126;2023-07-24T06:31:30;5.32;;;2.15;;
81396;SDS011;70852;49.908;8.126;2023-07-24T06:33:57;5.22;;;2.40;;
81396;SDS011;70852;49.908;8.126;2023-07-24T06:36:25;4.32;;;2.20;;
81396;SDS011;70852;49.908;8.126;2023-07-24T06:38:54;4.63;;;2.50;;
81396;SDS011;70852;49.908;8.126;2023-07-24T06:41:20;4.35;;;2.17;;
81396;SDS011;70852;49.908;8.126;2023-07-24T06:43:50;4.90;;;2.15;;
81396;SDS011;70852;49.908;8.126;2023-07-24T06:46:18;5.57;;;2.45;;
81396;SDS011;70852;49.908;8.126;2023-07-24T06:48:43;5.38;;;2.40;;
81396;SDS011;70852;49.908;8.126;2023-07-24T06:51:09;5.30;;;2.22;;
81396;SDS011;70852;49.908;8.126;2023-07-24T06:53:39;3.78;;;2.08;;
81396;SDS011;70852;49.908;8.126;2023-07-24T06:56:04;3.92;;;2.20;;
81396;SDS011;70852;49.908;8.126;2023-07-24T06:58:32;5.80;;;2.10;;
81396;SDS011;70852;49.908;8.126;2023-07-24T07:00:57;4.18;;;2.33;;
81396;SDS011;70852;49.908;8.126;2023-07-24T07:03:25;5.35;;;2.22;;
81396;SDS011;70852;49.908;8.126;2023-07-24T07:05:58;4.55;;;2.00;;
81396;SDS011;70852;49.908;8.126;2023-07-24T07:08:24;4.70;;;2.42;;
81396;SDS011;70852;49.908;8.126;2023-07-24T07:11:00;4.13;;;2.15;;
81396;SDS011;70852;49.908;8.126;2023-07-24T07:13:25;7.00;;;2.28;;
81396;SDS011;70852;49.908;8.126;2023-07-24T07:15:53;5.25;;;2.20;;
81396;SDS011;70852;49.908;8.126;2023-07-24T07:18:21;3.95;;;2.10;;
81396;SDS011;70852;49.908;8.126;2023-07-24T07:20:50;4.70;;;2.30;;
81396;SDS011;70852;49.908;8.126;2023-07-24T07:23:17;6.38;;;2.58;;
81396;SDS011;70852;49.908;8.126;2023-07-24T07:25:43;5.03;;;2.35;;
81396;SDS011;70852;49.908;8.126;2023-07-24T07:28:10;5.50;;;2.10;;
81396;SDS011;70852;49.908;8.126;2023-07-24T07:30:44;5.88;;;2.38;;
81396;SDS011;70852;49.908;8.126;2023-07-24T07:33:12;6.00;;;2.58;;
81396;SDS011;70852;49.908;8.126;2023-07-24T07:35:37;3.92;;;1.98;;
81396;SDS011;70852;49.908;8.126;2023-07-24T07:38:05;5.00;;;2.38;;
81396;SDS011;70852;49.908;8.126;2023-07-24T07:40:33;5.70;;;2.30;;
81396;SDS011;70852;49.908;8.126;2023-07-24T07:43:02;5.32;;;2.38;;
81396;SDS011;70852;49.908;8.126;2023-07-24T07:45:30;5.72;;;2.45;;
81396;SDS011;70852;49.908;8.126;2023-07-24T07:47:55;6.32;;;2.30;;
81396;SDS011;70852;49.908;8.126;2023-07-24T07:50:21;5.40;;;2.20;;
81396;SDS011;70852;49.908;8.126;2023-07-24T07:52:51;4.03;;;2.22;;
81396;SDS011;70852;49.908;8.126;2023-07-24T07:55:19;7.65;;;2.17;;
81396;SDS011;70852;49.908;8.126;2023-07-24T07:57:47;4.75;;;2.63;;
81396;SDS011;70852;49.908;8.126;2023-07-24T08:00:13;5.22;;;2.55;;
81396;SDS011;70852;49.908;8.126;2023-07-24T08:02:41;6.38;;;2.28;;
81396;SDS011;70852;49.908;8.126;2023-07-24T08:05:08;6.90;;;2.80;;
81396;SDS011;70852;49.908;8.126;2023-07-24T08:07:35;5.90;;;2.50;;
81396;SDS011;70852;49.908;8.126;2023-07-24T08:10:03;8.98;;;2.92;;
81396;SDS011;70852;49.908;8.126;2023-07-24T08:12:28;4.82;;;2.20;;
81396;SDS011;70852;49.908;8.126;2023-07-24T08:14:56;4.85;;;2.35;;
81396;SDS011;70852;49.908;8.126;2023-07-24T08:17:21;6.57;;;3.15;;
81396;SDS011;70852;49.908;8.126;2023-07-24T08:19:49;6.15;;;2.45;;
81396;SDS011;70852;49.908;8.126;2023-07-24T08:22:17;5.43;;;2.40;;
81396;SDS011;70852;49.908;8.126;2023-07-24T08:24:45;7.82;;;2.80;;
81396;SDS011;70852;49.908;8.126;2023-07-24T08:27:12;5.70;;;2.60;;
81396;SDS011;70852;49.908;8.126;2023-07-24T08:29:40;5.65;;;2.17;;
81396;SDS011;70852;49.908;8.126;2023-07-24T08:32:08;6.30;;;2.38;;
81396;SDS011;70852;49.908;8.126;2023-07-24T08:34:35;5.18;;;2.60;;
81396;SDS011;70852;49.908;8.126;2023-07-24T08:37:00;4.65;;;2.30;;
81396;SDS011;70852;49.908;8.126;2023-07-24T08:39:28;4.00;;;2.30;;
81396;SDS011;70852;49.908;8.126;2023-07-24T08:41:57;4.30;;;2.33;;
81396;SDS011;70852;49.908;8.126;2023-07-24T08:44:23;4.50;;;2.47;;
81396;SDS011;70852;49.908;8.126;2023-07-24T08:46:51;4.35;;;2.33;;
81396;SDS011;70852;49.908;8.126;2023-07-24T08:49:19;4.60;;;2.55;;
81396;SDS011;70852;49.908;8.126;2023-07-24T08:51:48;3.95;;;2.28;;
81396;SDS011;70852;49.908;8.126;2023-07-24T08:54:16;4.82;;;2.65;;
81396;SDS011;70852;49.908;8.126;2023-07-24T08:56:49;4.22;;;2.15;;
81396;SDS011;70852;49.908;8.126;2023-07-24T08:59:19;4.68;;;2.28;;
81396;SDS011;70852;49.908;8.126;2023-07-24T09:01:44;7.35;;;2.30;;
81396;SDS011;70852;49.908;8.126;2023-07-24T09:04:14;4.07;;;2.22;;
81396;SDS011;70852;49.908;8.126;2023-07-24T09:06:39;6.88;;;2.53;;
81396;SDS011;70852;49.908;8.126;2023-07-24T09:09:13;4.63;;;2.25;;
81396;SDS011;70852;49.908;8.126;2023-07-24T09:11:50;3.92;;;2.05;;
81396;SDS011;70852;49.908;8.126;2023-07-24T09:14:23;4.18;;;2.33;;
81396;SDS011;70852;49.908;8.126;2023-07-24T09:17:01;8.75;;;2.53;;
81396;SDS011;70852;49.908;8.126;2023-07-24T09:19:30;4.93;;;2.20;;
81396;SDS011;70852;49.908;8.126;2023-07-24T09:22:07;4.88;;;2.22;;
81396;SDS011;70852;49.908;8.126;2023-07-24T09:24:58;4.40;;;1.98;;
81396;SDS011;70852;49.908;8.126;2023-07-24T09:27:30;4.32;;;2.22;;
81396;SDS011;70852;49.908;8.126;2023-07-24T09:29:58;5.70;;;2.45;;
81396;SDS011;70852;49.908;8.126;2023-07-24T09:32:24;4.22;;;2.42;;
81396;SDS011;70852;49.908;8.126;2023-07-24T09:34:53;4.30;;;2.42;;
81396;SDS011;70852;49.908;8.126;2023-07-24T09:37:30;4.82;;;2.60;;
81396;SDS011;70852;49.908;8.126;2023-07-24T09:39:57;4.30;;;2.47;;
81396;SDS011;70852;49.908;8.126;2023-07-24T09:42:29;4.85;;;2.35;;
81396;SDS011;70852;49.908;8.126;2023-07-24T09:44:55;5.35;;;3.25;;
81396;SDS011;70852;49.908;8.126;2023-07-24T09:47:21;5.40;;;2.78;;
81396;SDS011;70852;49.908;8.126;2023-07-24T09:49:46;5.85;;;3.00;;
81396;SDS011;70852;49.908;8.126;2023-07-24T09:52:18;5.10;;;2.95;;
81396;SDS011;70852;49.908;8.126;2023-07-24T09:57:32;5.90;;;3.35;;
81396;SDS011;70852;49.908;8.126;2023-07-24T10:00:00;5.03;;;2.72;;
81396;SDS011;70852;49.908;8.126;2023-07-24T10:02:28;5.78;;;2.78;;
81396;SDS011;70852;49.908;8.126;2023-07-24T10:04:56;5.88;;;3.05;;
81396;SDS011;70852;49.908;8.126;2023-07-24T10:07:26;8.32;;;3.50;;
81396;SDS011;70852;49.908;8.126;2023-07-24T10:09:54;5.90;;;3.22;;
81396;SDS011;70852;49.908;8.126;2023-07-24T10:12:20;4.95;;;3.05;;
81396;SDS011;70852;49.908;8.126;2023-07-24T10:14:48;5.40;;;2.95;;
81396;SDS011;70852;49.908;8.126;2023-07-24T10:17:14;5.07;;;3.10;;
81396;SDS011;70852;49.908;8.126;2023-07-24T10:20:07;7.47;;;3.53;;
81396;SDS011;70852;49.908;8.126;2023-07-24T10:22:42;7.10;;;3.05;;
81396;SDS011;70852;49.908;8.126;2023-07-24T10:25:08;12.05;;;3.47;;
81396;SDS011;70852;49.908;8.126;2023-07-24T10:27:46;6.43;;;3.70;;
81396;SDS011;70852;49.908;8.126;2023-07-24T10:30:16;6.65;;;3.15;;
81396;SDS011;70852;49.908;8.126;2023-07-24T10:32:48;6.60;;;3.38;;
81396;SDS011;70852;49.908;8.126;2023-07-24T10:35:16;7.35;;;3.83;;
81396;SDS011;70852;49.908;8.126;2023-07-24T10:37:42;5.43;;;3.03;;
81396;SDS011;70852;49.908;8.126;2023-07-24T10:40:18;5.85;;;3.33;;
81396;SDS011;70852;49.908;8.126;2023-07-24T10:42:46;5.82;;;3.20;;
81396;SDS011;70852;49.908;8.126;2023-07-24T10:45:14;7.65;;;3.83;;
81396;SDS011;70852;49.908;8.126;2023-07-24T10:47:41;7.53;;;4.10;;
81396;SDS011;70852;49.908;8.126;2023-07-24T10:50:11;5.80;;;3.28;;
81396;SDS011;70852;49.908;8.126;2023-07-24T10:52:38;9.77;;;4.80;;
81396;SDS011;70852;49.908;8.126;2023-07-24T10:55:04;17.67;;;6.57;;
81396;SDS011;70852;49.908;8.126;2023-07-24T10:57:32;7.30;;;4.20;;
81396;SDS011;70852;49.908;8.126;2023-07-24T10:59:57;10.02;;;5.30;;
81396;SDS011;70852;49.908;8.126;2023-07-24T11:02:27;8.75;;;4.93;;
81396;SDS011;70852;49.908;8.126;2023-07-24T11:04:53;7.65;;;3.88;;
81396;SDS011;70852;49.908;8.126;2023-07-24T11:07:18;6.72;;;3.97;;
81396;SDS011;70852;49.908;8.126;2023-07-24T11:09:44;6.78;;;3.53;;
81396;SDS011;70852;49.908;8.126;2023-07-24T11:12:14;5.50;;;3.25;;
81396;SDS011;70852;49.908;8.126;2023-07-24T11:14:49;5.30;;;3.33;;
81396;SDS011;70852;49.908;8.126;2023-07-24T11:17:32;4.95;;;3.00;;
81396;SDS011;70852;49.908;8.126;2023-07-24T11:20:09;7.63;;;3.47;;
81396;SDS011;70852;49.908;8.126;2023-07-24T11:22:39;4.75;;;3.17;;
81396;SDS011;70852;49.908;8.126;2023-07-24T11:25:07;5.53;;;3.20;;
81396;SDS011;70852;49.908;8.126;2023-07-24T11:27:38;5.75;;;3.20;;
81396;SDS011;70852;49.908;8.126;2023-07-24T11:30:08;6.32;;;3.40;;
81396;SDS011;70852;49.908;8.126;2023-07-24T11:32:34;6.85;;;3.88;;
81396;SDS011;70852;49.908;8.126;2023-07-24T11:35:02;5.20;;;3.25;;
81396;SDS011;70852;49.908;8.126;2023-07-24T11:37:28;6.03;;;3.60;;
81396;SDS011;70852;49.908;8.126;2023-07-24T11:39:54;5.82;;;3.40;;
81396;SDS011;70852;49.908;8.126;2023-07-24T11:42:42;4.97;;;3.30;;
81396;SDS011;70852;49.908;8.126;2023-07-24T11:45:11;4.95;;;3.40;;
81396;SDS011;70852;49.908;8.126;2023-07-24T11:50:07;5.07;;;3.30;;
81396;SDS011;70852;49.908;8.126;2023-07-24T11:52:45;7.03;;;3.60;;
81396;SDS011;70852;49.908;8.126;2023-07-24T11:55:13;5.13;;;3.00;;
81396;SDS011;70852;49.908;8.126;2023-07-24T11:57:42;9.77;;;3.22;;
81396;SDS011;70852;49.908;8.126;2023-07-24T12:00:21;6.75;;;4.20;;
81396;SDS011;70852;49.908;8.126;2023-07-24T12:02:47;6.65;;;3.53;;
81396;SDS011;70852;49.908;8.126;2023-07-24T12:05:13;5.40;;;3.22;;
81396;SDS011;70852;49.908;8.126;2023-07-24T12:07:42;6.60;;;3.97;;
81396;SDS011;70852;49.908;8.126;2023-07-24T12:10:24;8.20;;;3.67;;
81396;SDS011;70852;49.908;8.126;2023-07-24T12:12:52;9.63;;;3.67;;
81396;SDS011;70852;49.908;8.126;2023-07-24T12:15:18;5.88;;;3.25;;
81396;SDS011;70852;49.908;8.126;2023-07-24T12:17:45;7.32;;;3.47;;
81396;SDS011;70852;49.908;8.126;2023-07-24T12:20:13;7.15;;;3.80;;
81396;SDS011;70852;49.908;8.126;2023-07-24T12:22:41;4.75;;;3.08;;
81396;SDS011;70852;49.908;8.126;2023-07-24T12:25:06;7.60;;;3.42;;
81396;SDS011;70852;49.908;8.126;2023-07-24T12:27:32;4.70;;;3.40;;
81396;SDS011;70852;49.908;8.126;2023-07-24T12:29:57;5.53;;;2.95;;
81396;SDS011;70852;49.908;8.126;2023-07-24T12:32:26;8.60;;;3.42;;
81396;SDS011;70852;49.908;8.126;2023-07-24T12:34:52;5.57;;;3.05;;
81396;SDS011;70852;49.908;8.126;2023-07-24T12:37:18;5.47;;;3.50;;
81396;SDS011;70852;49.908;8.126;2023-07-24T12:39:47;6.43;;;3.03;;
81396;SDS011;70852;49.908;8.126;2023-07-24T12:42:15;5.43;;;3.10;;
81396;SDS011;70852;49.908;8.126;2023-07-24T12:44:41;5.15;;;2.75;;
81396;SDS011;70852;49.908;8.126;2023-07-24T12:47:10;7.43;;;3.17;;
81396;SDS011;70852;49.908;8.126;2023-07-24T12:49:42;10.48;;;3.65;;
81396;SDS011;70852;49.908;8.126;2023-07-24T12:52:07;5.63;;;3.20;;
81396;SDS011;70852;49.908;8.126;2023-07-24T12:54:37;4.68;;;2.58;;
81396;SDS011;70852;49.908;8.126;2023-07-24T12:57:05;8.35;;;3.50;;
81396;SDS011;70852;49.908;8.126;2023-07-24T12:59:33;12.80;;;3.58;;
81396;SDS011;70852;49.908;8.126;2023-07-24T13:01:58;6.43;;;2.80;;
81396;SDS011;70852;49.908;8.126;2023-07-24T13:04:26;9.10;;;3.53;;
81396;SDS011;70852;49.908;8.126;2023-07-24T13:06:51;6.18;;;3.20;;
81396;SDS011;70852;49.908;8.126;2023-07-24T13:09:17;5.43;;;3.40;;
81396;SDS011;70852;49.908;8.126;2023-07-24T13:11:43;9.60;;;3.22;;
81396;SDS011;70852;49.908;8.126;2023-07-24T13:14:13;6.28;;;2.88;;
81396;SDS011;70852;49.908;8.126;2023-07-24T13:16:39;4.95;;;3.03;;
81396;SDS011;70852;49.908;8.126;2023-07-24T13:19:04;5.15;;;3.13;;
81396;SDS011;70852;49.908;8.126;2023-07-24T13:21:34;4.93;;;3.30;;
81396;SDS011;70852;49.908;8.126;2023-07-24T13:24:00;6.22;;;3.30;;
81396;SDS011;70852;49.908;8.126;2023-07-24T13:26:25;7.68;;;3.17;;
81396;SDS011;70852;49.908;8.126;2023-07-24T13:28:50;5.30;;;3.92;;
81396;SDS011;70852;49.908;8.126;2023-07-24T13:31:26;7.03;;;3.15;;
81396;SDS011;70852;49.908;8.126;2023-07-24T13:33:54;6.35;;;3.55;;
81396;SDS011;70852;49.908;8.126;2023-07-24T13:36:19;7.68;;;3.72;;
81396;SDS011;70852;49.908;8.126;2023-07-24T13:38:45;5.63;;;3.17;;
81396;SDS011;70852;49.908;8.126;2023-07-24T13:41:10;4.57;;;3.00;;
81396;SDS011;70852;49.908;8.126;2023-07-24T13:43:35;4.55;;;3.00;;
81396;SDS011;70852;49.908;8.126;2023-07-24T13:46:02;5.45;;;2.88;;
81396;SDS011;70852;49.908;8.126;2023-07-24T13:48:28;6.22;;;3.40;;
81396;SDS011;70852;49.908;8.126;2023-07-24T13:50:58;5.70;;;3.28;;
81396;SDS011;70852;49.908;8.126;2023-07-24T13:53:26;6.25;;;3.22;;
81396;SDS011;70852;49.908;8.126;2023-07-24T13:55:54;6.60;;;3.58;;
81396;SDS011;70852;49.908;8.126;2023-07-24T13:58:19;6.53;;;3.50;;
81396;SDS011;70852;49.908;8.126;2023-07-24T14:00:44;6.30;;;2.80;;
81396;SDS011;70852;49.908;8.126;2023-07-24T14:03:12;4.72;;;2.58;;
81396;SDS011;70852;49.908;8.126;2023-07-24T14:05:38;3.50;;;2.30;;
81396;SDS011;70852;49.908;8.126;2023-07-24T14:08:03;3.72;;;1.98;;
81396;SDS011;70852;49.908;8.126;2023-07-24T14:10:29;4.22;;;2.60;;
81396;SDS011;70852;49.908;8.126;2023-07-24T14:12:54;4.80;;;3.00;;
81396;SDS011;70852;49.908;8.126;2023-07-24T14:15:22;4.65;;;2.53;;
81396;SDS011;70852;49.908;8.126;2023-07-24T14:17:48;4.22;;;2.58;;
81396;SDS011;70852;49.908;8.126;2023-07-24T14:20:13;4.28;;;2.60;;
81396;SDS011;70852;49.908;8.126;2023-07-24T14:22:40;4.55;;;2.80;;
81396;SDS011;70852;49.908;8.126;2023-07-24T14:25:08;6.40;;;2.58;;
81396;SDS011;70852;49.908;8.126;2023-07-24T14:27:36;4.32;;;2.78;;
81396;SDS011;70852;49.908;8.126;2023-07-24T14:30:01;4.13;;;2.50;;
81396;SDS011;70852;49.908;8.126;2023-07-24T14:32:27;3.97;;;2.55;;
81396;SDS011;70852;49.908;8.126;2023-07-24T14:34:55;4.63;;;2.92;;
81396;SDS011;70852;49.908;8.126;2023-07-24T14:37:23;3.85;;;2.40;;
81396;SDS011;70852;49.908;8.126;2023-07-24T14:39:50;5.22;;;2.13;;
81396;SDS011;70852;49.908;8.126;2023-07-24T14:42:16;5.55;;;2.20;;
81396;SDS011;70852;49.908;8.126;2023-07-24T14:44:41;3.40;;;2.13;;
81396;SDS011;70852;49.908;8.126;2023-07-24T14:47:06;3.05;;;1.88;;
81396;SDS011;70852;49.908;8.126;2023-07-24T14:49:34;3.20;;;1.83;;
81396;SDS011;70852;49.908;8.126;2023-07-24T14:52:01;3.60;;;1.73;;
81396;SDS011;70852;49.908;8.126;2023-07-24T14:54:27;6.60;;;2.33;;
81396;SDS011;70852;49.908;8.126;2023-07-24T14:56:52;4.53;;;1.90;;
81396;SDS011;70852;49.908;8.126;2023-07-24T14:59:20;6.00;;;1.92;;
81396;SDS011;70852;49.908;8.126;2023-07-24T15:01:46;11.43;;;2.40;;
81396;SDS011;70852;49.908;8.126;2023-07-24T15:04:16;8.65;;;1.90;;
81396;SDS011;70852;49.908;8.126;2023-07-24T15:06:41;7.88;;;2.00;;
81396;SDS011;70852;49.908;8.126;2023-07-24T15:09:09;6.72;;;2.25;;